Accueil
METAR-TAF:

METAR-TAF

Aéroports :

Amman, Jordanie

Aéroport civil d'Amman

latitude: 31-59N, longitude: 035-59E, altitude: 767 m

Observation

Le bulletin a été fait il y a 16 minutes, à 02:00 UTC
Vent 9 kt de ouest
Température 14°C
Humidité 77%
Pression 1017 hPa
Visibilité: 5000 m
brume sèche

METAR: OJAM 240200Z 27009KT 5000 HZ NSC 14/10 Q1017 NOSIG

Heure: 05:16 (02:16 UTC)

Prévision

Le bulletin a été fait il y a 9 heures et 24 minutes, à 16:52 UTC
Prévision valable du 23 à 18 UTC au 24 à 24 UTC
Vent 12 kt de ouest
Visibilité: 5000 m
Nuages épars à une hauteur de 3500 ft
brume sèche
Temporairement
du 24 à 01 UTC au 24 à 05 UTC
Vent 2 kt de direction variable
Visibilité: 3000 m
Nuages épars à une hauteur de 3000 ft
brume

TAF: OJAM 231652Z 2318/2424 28012KT 5000 HZ SCT035 TEMPO 2401/2405 VRB02KT 3000 BR SCT030

Observations et prévisions météorologiques de plus de 4000 aéroports (messages METAR et TAF).

Les stations disponibles sont représentées par des disques jaunes et rouges sur la carte.

Passer la souris dessus pour voir le nom de la station.

Cliquer dessus pour voir les observations et prévisions météorologiques.

Pour changer de carte: cliquez sur les boutons verts avec une croix noire pour zoomer, sur le bouton vert avec un tiret pour effectuer un zoom arrière, ou sur les flèches vertes pour les cartes adjacentes.


METAR-TAF: